createdAt,value
2017-06-01T00:00:37.229Z,11.15
2017-06-01T00:01:37.524Z,11.12
2017-06-01T00:02:37.846Z,11.13
2017-06-01T00:03:37.511Z,11.15
2017-06-01T00:04:37.499Z,11.08
2017-06-01T00:05:37.492Z,11.13
2017-06-01T00:06:37.493Z,11.16
2017-06-01T00:07:37.837Z,11.02
2017-06-01T00:08:37.150Z,11.15
2017-06-01T00:09:37.787Z,11.03
2017-06-01T00:10:37.803Z,11.02
2017-06-01T00:11:37.457Z,11.05
2017-06-01T00:12:37.465Z,11.03
2017-06-01T00:13:37.762Z,11.06
2017-06-01T00:14:37.765Z,11.09
2017-06-01T00:15:37.427Z,11.05
2017-06-01T00:16:37.431Z,11.05
2017-06-01T00:17:37.744Z,11
2017-06-01T00:18:37.404Z,11.06
2017-06-01T00:19:37.413Z,11.03
2017-06-01T00:20:37.727Z,11.06
2017-06-01T00:21:37.384Z,11.06
2017-06-01T00:22:37.698Z,11.03
2017-06-01T00:23:37.737Z,11.06
2017-06-01T00:24:37.686Z,10.98
2017-06-01T00:25:37.382Z,10.98
2017-06-01T00:26:37.679Z,10.92
2017-06-01T00:27:37.039Z,10.95
2017-06-01T00:28:37.014Z,10.97
2017-06-01T00:29:37.357Z,10.91
2017-06-01T00:30:37.673Z,10.92
2017-06-01T00:31:37.314Z,10.91
2017-06-01T00:32:37.629Z,10.87
2017-06-01T00:33:37.646Z,10.87
2017-06-01T00:34:37.294Z,10.97
2017-06-01T00:35:37.290Z,10.88
2017-06-01T00:36:37.290Z,10.85
2017-06-01T00:37:37.273Z,10.88
2017-06-01T00:38:37.601Z,10.91
2017-06-01T00:39:36.959Z,10.88
2017-06-01T00:40:37.574Z,11
2017-06-01T00:41:37.577Z,10.92
2017-06-01T00:42:37.573Z,10.98
2017-06-01T00:43:37.551Z,10.88
2017-06-01T00:44:37.224Z,10.88
2017-06-01T00:45:37.541Z,11.02
2017-06-01T00:46:37.214Z,10.92
2017-06-01T00:47:37.202Z,10.87
2017-06-01T00:48:37.518Z,10.84
2017-06-01T00:49:37.533Z,10.88
2017-06-01T00:50:36.872Z,10.91
2017-06-01T00:51:37.181Z,10.79
2017-06-01T00:52:37.189Z,10.91
2017-06-01T00:53:37.484Z,10.94
2017-06-01T00:54:37.150Z,10.84
2017-06-01T00:55:37.465Z,10.83
2017-06-01T00:56:37.477Z,10.91
2017-06-01T00:57:37.152Z,10.79
2017-06-01T00:58:37.445Z,10.8
2017-06-01T00:59:36.795Z,10.85
2017-06-01T01:00:37.111Z,10.72
2017-06-01T01:01:37.426Z,10.7
2017-06-01T01:02:37.116Z,10.76
2017-06-01T01:03:37.089Z,10.77
2017-06-01T01:04:37.087Z,10.83
2017-06-01T01:05:36.752Z,10.76
2017-06-01T01:06:36.747Z,10.8
2017-06-01T01:07:37.623Z,10.73
2017-06-01T01:08:37.372Z,10.7
2017-06-01T01:09:37.065Z,10.75
2017-06-01T01:10:37.360Z,10.75
2017-06-01T01:11:37.075Z,10.7
2017-06-01T01:12:37.036Z,10.76
2017-06-01T01:13:37.333Z,10.69
2017-06-01T01:14:37.059Z,10.66
2017-06-01T01:15:37.024Z,10.76
2017-06-01T01:16:37.002Z,10.66
2017-06-01T01:17:36.663Z,10.66
2017-06-01T01:18:37.298Z,10.67
2017-06-01T01:19:36.649Z,10.73
2017-06-01T01:20:36.656Z,10.66
2017-06-01T01:21:36.971Z,10.66
2017-06-01T01:22:36.953Z,10.67
2017-06-01T01:23:36.641Z,10.72
2017-06-01T01:24:37.258Z,10.59
2017-06-01T01:25:37.248Z,10.57
2017-06-01T01:26:36.919Z,10.58
2017-06-01T01:27:36.592Z,10.55
2017-06-01T01:28:36.910Z,10.61
2017-06-01T01:29:36.899Z,10.58
2017-06-01T01:30:37.213Z,10.55
2017-06-01T01:31:37.216Z,10.46
2017-06-01T01:32:37.203Z,10.58
2017-06-01T01:33:36.866Z,10.55
2017-06-01T01:34:37.921Z,10.51
2017-06-01T01:35:36.870Z,10.44
2017-06-01T01:36:36.526Z,10.44
2017-06-01T01:37:36.855Z,10.46
2017-06-01T01:38:36.850Z,10.41
2017-06-01T01:39:37.148Z,10.39
2017-06-01T01:40:36.841Z,10.46
2017-06-01T01:41:36.819Z,10.51
2017-06-01T01:42:37.120Z,10.51
2017-06-01T01:43:37.119Z,10.49
2017-06-01T01:44:36.478Z,10.47
2017-06-01T01:45:36.491Z,10.57
2017-06-01T01:46:36.457Z,10.54
2017-06-01T01:47:36.768Z,10.63
2017-06-01T01:48:36.761Z,10.7
2017-06-01T01:49:36.750Z,10.63
2017-06-01T01:50:37.065Z,10.69
2017-06-01T01:51:36.737Z,10.66
2017-06-01T01:52:36.728Z,10.65
2017-06-01T01:53:36.718Z,10.65
2017-06-01T01:54:36.710Z,10.65
2017-06-01T01:55:37.028Z,10.61
2017-06-01T01:56:36.705Z,10.69
2017-06-01T01:57:37.015Z,10.66
2017-06-01T01:58:36.723Z,10.66
2017-06-01T01:59:37.020Z,10.66
2017-06-01T02:00:37.011Z,10.72
2017-06-01T02:01:36.979Z,10.61
2017-06-01T02:02:36.652Z,10.57
2017-06-01T02:03:36.987Z,10.51
2017-06-01T02:04:36.957Z,10.54
2017-06-01T02:05:36.658Z,10.46
2017-06-01T02:06:36.632Z,10.55
2017-06-01T02:07:37.047Z,10.51
2017-06-01T02:08:36.942Z,10.44
2017-06-01T02:09:36.934Z,10.42
2017-06-01T02:10:36.920Z,10.42
2017-06-01T02:11:36.900Z,10.49
2017-06-01T02:12:36.572Z,10.44
2017-06-01T02:13:36.568Z,10.49
2017-06-01T02:14:36.882Z,10.49
2017-06-01T02:15:36.557Z,10.51
2017-06-01T02:16:36.227Z,10.54
2017-06-01T02:17:36.870Z,10.54
2017-06-01T02:18:36.286Z,10.52
2017-06-01T02:19:36.900Z,10.49
2017-06-01T02:20:36.518Z,10.58
2017-06-01T02:21:36.502Z,10.58
2017-06-01T02:22:36.509Z,10.59
2017-06-01T02:23:36.492Z,10.66
2017-06-01T02:24:36.493Z,10.72
2017-06-01T02:25:36.797Z,10.65
2017-06-01T02:26:36.790Z,10.66
2017-06-01T02:27:36.137Z,10.66
2017-06-01T02:28:36.780Z,10.65
2017-06-01T02:29:36.146Z,10.76
2017-06-01T02:30:36.761Z,10.73
2017-06-01T02:31:36.752Z,10.76
2017-06-01T02:32:36.769Z,10.8
2017-06-01T02:33:36.095Z,10.85
2017-06-01T02:34:36.413Z,10.94
2017-06-01T02:35:36.755Z,10.92
2017-06-01T02:36:36.709Z,10.9
2017-06-01T02:37:36.721Z,10.94
2017-06-01T02:38:36.075Z,10.94
2017-06-01T02:39:36.688Z,11.08
2017-06-01T02:40:36.678Z,10.95
2017-06-01T02:41:36.351Z,11
2017-06-01T02:42:36.354Z,11.03
2017-06-01T02:43:36.662Z,10.98
2017-06-01T02:44:36.008Z,11.06
2017-06-01T02:45:36.647Z,10.98
2017-06-01T02:46:36.314Z,10.95
2017-06-01T02:47:36.631Z,10.92
2017-06-01T02:48:36.623Z,10.94
2017-06-01T02:49:35.970Z,10.97
2017-06-01T02:50:36.284Z,11.03
2017-06-01T02:51:36.300Z,11.03
2017-06-01T02:52:36.287Z,11.05
2017-06-01T02:53:36.595Z,11.08
2017-06-01T02:54:36.255Z,11.03
2017-06-01T02:55:36.564Z,11.06
2017-06-01T02:56:36.558Z,11.02
2017-06-01T02:57:36.554Z,11.13
2017-06-01T02:58:36.236Z,11.16
2017-06-01T02:59:36.216Z,11.05
2017-06-01T03:00:36.211Z,11.13
2017-06-01T03:01:35.880Z,11.16
2017-06-01T03:02:36.196Z,11.18
2017-06-01T03:03:35.877Z,11.2
2017-06-01T03:04:36.502Z,11.21
2017-06-01T03:05:36.186Z,11.27
2017-06-01T03:06:35.846Z,11.33
2017-06-01T03:07:36.483Z,11.43
2017-06-01T03:08:36.471Z,11.51
2017-06-01T03:09:36.151Z,11.42
2017-06-01T03:10:36.135Z,11.49
2017-06-01T03:11:36.142Z,11.48
2017-06-01T03:12:36.121Z,11.49
2017-06-01T03:13:36.114Z,11.51
2017-06-01T03:14:35.798Z,11.39
2017-06-01T03:15:35.776Z,11.35
2017-06-01T03:16:36.098Z,11.34
2017-06-01T03:17:36.084Z,11.28
2017-06-01T03:18:36.402Z,11.24
2017-06-01T03:19:36.394Z,11.31
2017-06-01T03:20:35.740Z,11.26
2017-06-01T03:21:36.055Z,11.2
2017-06-01T03:22:36.051Z,11.26
2017-06-01T03:23:36.384Z,11.16
2017-06-01T03:24:36.357Z,11.15
2017-06-01T03:25:36.350Z,11.13
2017-06-01T03:26:36.040Z,11.12
2017-06-01T03:27:35.714Z,11.09
2017-06-01T03:28:36.008Z,11.1
2017-06-01T03:29:36.347Z,11.12
2017-06-01T03:30:36.316Z,11.16
2017-06-01T03:31:35.987Z,11.03
2017-06-01T03:32:35.668Z,11.06
2017-06-01T03:33:35.972Z,10.92
2017-06-01T03:34:36.305Z,11
2017-06-01T03:35:36.300Z,11.06
2017-06-01T03:36:36.273Z,10.87
2017-06-01T03:37:36.291Z,10.87
2017-06-01T03:38:36.257Z,10.87
2017-06-01T03:39:36.249Z,10.91
2017-06-01T03:40:35.927Z,10.88
2017-06-01T03:41:35.915Z,10.9
2017-06-01T03:42:36.236Z,10.94
2017-06-01T03:43:36.219Z,10.92
2017-06-01T03:44:35.571Z,10.97
2017-06-01T03:45:36.212Z,10.84
2017-06-01T03:46:36.194Z,10.87
2017-06-01T03:47:35.870Z,10.9
2017-06-01T03:48:35.872Z,10.98
2017-06-01T03:49:36.177Z,10.97
2017-06-01T03:50:36.166Z,11.05
2017-06-01T03:51:35.519Z,11.05
2017-06-01T03:52:35.838Z,11.16
2017-06-01T03:53:36.185Z,11.15
2017-06-01T03:54:36.142Z,11.15
2017-06-01T03:55:35.817Z,11.3
2017-06-01T03:56:36.123Z,11.28
2017-06-01T03:57:36.114Z,11.45
2017-06-01T03:58:35.818Z,11.43
2017-06-01T03:59:35.459Z,11.41
2017-06-01T04:00:36.103Z,11.53
2017-06-01T04:01:35.449Z,11.48
2017-06-01T04:02:35.761Z,11.46
2017-06-01T04:03:35.769Z,11.56
2017-06-01T04:04:36.069Z,11.66
2017-06-01T04:05:35.763Z,11.64
2017-06-01T04:06:35.733Z,11.68
2017-06-01T04:07:36.058Z,11.73
2017-06-01T04:08:36.057Z,11.68
2017-06-01T04:09:35.388Z,11.7
2017-06-01T04:10:35.705Z,11.66
2017-06-01T04:11:35.699Z,11.79
2017-06-01T04:12:35.470Z,11.78
2017-06-01T04:13:35.684Z,11.91
2017-06-01T04:14:36.000Z,11.88
2017-06-01T04:15:35.671Z,11.95
2017-06-01T04:16:35.705Z,12
2017-06-01T04:17:35.990Z,12.07
2017-06-01T04:18:35.668Z,12.1
2017-06-01T04:19:35.987Z,12.22
2017-06-01T04:20:35.635Z,12.22
2017-06-01T04:21:35.306Z,12.38
2017-06-01T04:22:35.960Z,12.41
2017-06-01T04:23:35.939Z,12.37
2017-06-01T04:24:35.287Z,12.52
2017-06-01T04:25:35.286Z,12.55
2017-06-01T04:26:35.595Z,12.53
2017-06-01T04:27:35.601Z,12.61
2017-06-01T04:28:35.590Z,12.59
2017-06-01T04:29:35.902Z,12.62
2017-06-01T04:30:35.892Z,12.76
2017-06-01T04:31:35.901Z,12.76
2017-06-01T04:32:35.883Z,12.84
2017-06-01T04:33:35.901Z,12.91
2017-06-01T04:34:35.544Z,12.95
2017-06-01T04:35:35.538Z,13.02
2017-06-01T04:36:35.873Z,13.1
2017-06-01T04:37:35.223Z,13.14
2017-06-01T04:38:35.517Z,13.2
2017-06-01T04:39:35.574Z,13.36
2017-06-01T04:40:35.513Z,13.35
2017-06-01T04:41:35.502Z,13.37
2017-06-01T04:42:35.517Z,13.5
2017-06-01T04:43:35.500Z,13.54
2017-06-01T04:44:35.487Z,13.54
2017-06-01T04:45:35.478Z,13.54
2017-06-01T04:46:35.478Z,13.68
2017-06-01T04:47:35.465Z,13.63
2017-06-01T04:48:35.459Z,13.69
2017-06-01T04:49:35.477Z,13.72
2017-06-01T04:50:35.449Z,13.63
2017-06-01T04:51:35.773Z,13.6
2017-06-01T04:52:35.117Z,13.55
2017-06-01T04:53:35.762Z,13.54
2017-06-01T04:54:35.440Z,13.47
2017-06-01T04:55:35.761Z,13.45
2017-06-01T04:56:35.756Z,13.51
2017-06-01T04:57:35.413Z,13.47
2017-06-01T04:58:35.404Z,13.48
2017-06-01T04:59:35.418Z,13.39
2017-06-01T05:00:35.414Z,13.39
2017-06-01T05:01:35.397Z,13.45
2017-06-01T05:02:35.705Z,13.37
2017-06-01T05:03:35.389Z,13.39
2017-06-01T05:04:35.099Z,13.42
2017-06-01T05:05:35.693Z,13.4
2017-06-01T05:06:35.364Z,13.35
2017-06-01T05:07:35.679Z,13.44
2017-06-01T05:08:35.034Z,13.48
2017-06-01T05:09:35.681Z,13.45
2017-06-01T05:10:35.679Z,13.45
2017-06-01T05:11:35.338Z,13.51
2017-06-01T05:12:35.349Z,13.44
2017-06-01T05:13:35.648Z,13.5
2017-06-01T05:14:35.319Z,13.51
2017-06-01T05:15:35.006Z,13.51
2017-06-01T05:16:35.646Z,13.47
2017-06-01T05:17:35.318Z,13.55
2017-06-01T05:18:35.300Z,13.58
2017-06-01T05:19:35.304Z,13.58
2017-06-01T05:20:34.976Z,13.7
2017-06-01T05:21:35.621Z,13.69
2017-06-01T05:22:35.278Z,13.69
2017-06-01T05:23:35.594Z,13.81
2017-06-01T05:24:35.270Z,13.9
2017-06-01T05:25:35.610Z,13.84
2017-06-01T05:26:35.617Z,13.91
2017-06-01T05:27:35.250Z,13.81
2017-06-01T05:28:35.568Z,13.93
2017-06-01T05:29:35.251Z,13.95
2017-06-01T05:30:35.251Z,14.02
2017-06-01T05:31:35.566Z,14.11
2017-06-01T05:32:35.545Z,14.11
2017-06-01T05:33:35.244Z,14.08
2017-06-01T05:34:34.941Z,14.08
2017-06-01T05:35:35.561Z,14.19
2017-06-01T05:36:35.225Z,14.19
2017-06-01T05:37:35.542Z,14.21
2017-06-01T05:38:35.739Z,14.28
2017-06-01T05:39:35.194Z,14.34
2017-06-01T05:40:35.508Z,14.36
2017-06-01T05:41:35.531Z,14.44
2017-06-01T05:42:35.184Z,14.48
2017-06-01T05:43:35.497Z,14.46
2017-06-01T05:44:35.178Z,14.48
2017-06-01T05:45:35.496Z,14.52
2017-06-01T05:46:34.838Z,14.52
2017-06-01T05:47:35.154Z,14.51
2017-06-01T05:48:35.467Z,14.59
2017-06-01T05:49:35.162Z,14.64
2017-06-01T05:50:35.140Z,14.63
2017-06-01T05:51:35.133Z,14.63
2017-06-01T05:52:35.139Z,14.7
2017-06-01T05:53:35.467Z,14.66
2017-06-01T05:54:35.119Z,14.66
2017-06-01T05:55:35.116Z,14.74
2017-06-01T05:56:35.450Z,14.67
2017-06-01T05:57:35.494Z,14.79
2017-06-01T05:58:35.425Z,14.87
2017-06-01T05:59:35.417Z,14.87
2017-06-01T06:00:35.419Z,14.85
2017-06-01T06:01:35.092Z,14.85
2017-06-01T06:02:34.768Z,14.93
2017-06-01T06:03:35.082Z,15.01
2017-06-01T06:04:34.773Z,15.01
2017-06-01T06:05:35.092Z,14.97
2017-06-01T06:06:35.070Z,15.1
2017-06-01T06:07:35.062Z,15.05
2017-06-01T06:08:35.063Z,15.07
2017-06-01T06:09:34.760Z,15.1
2017-06-01T06:10:34.734Z,15.05
2017-06-01T06:11:35.056Z,15.04
2017-06-01T06:12:35.042Z,15.08
2017-06-01T06:13:34.716Z,15.08
2017-06-01T06:14:35.052Z,15.13
2017-06-01T06:15:35.360Z,15.05
2017-06-01T06:16:35.345Z,15.1
2017-06-01T06:17:35.349Z,15.16
2017-06-01T06:18:35.021Z,15.08
2017-06-01T06:19:35.092Z,15.23
2017-06-01T06:20:34.685Z,15.22
2017-06-01T06:21:34.684Z,15.27
2017-06-01T06:22:35.324Z,15.31
2017-06-01T06:23:35.350Z,15.27
2017-06-01T06:24:35.332Z,15.3
2017-06-01T06:25:34.988Z,15.41
2017-06-01T06:26:35.306Z,15.45
2017-06-01T06:27:34.995Z,15.52
2017-06-01T06:28:34.659Z,15.56
2017-06-01T06:29:35.292Z,15.62
2017-06-01T06:30:34.982Z,15.67
2017-06-01T06:31:34.648Z,15.75
2017-06-01T06:32:34.639Z,15.77
2017-06-01T06:33:34.959Z,15.74
2017-06-01T06:34:34.967Z,15.89
2017-06-01T06:35:34.981Z,15.83
2017-06-01T06:36:34.944Z,15.93
2017-06-01T06:37:35.264Z,15.98
2017-06-01T06:38:34.943Z,16.07
2017-06-01T06:39:35.259Z,16.27
2017-06-01T06:40:34.939Z,16.84
2017-06-01T06:41:35.248Z,17.25
2017-06-01T06:42:34.929Z,17.71
2017-06-01T06:43:35.263Z,18.06
2017-06-01T06:44:34.605Z,18.34
2017-06-01T06:45:35.242Z,18.81
2017-06-01T06:46:35.260Z,19.37
2017-06-01T06:47:35.291Z,20.05
2017-06-01T06:48:35.253Z,20.83
2017-06-01T06:49:34.612Z,21.62
2017-06-01T06:50:34.595Z,22.41
2017-06-01T06:51:34.959Z,23.14
2017-06-01T06:52:34.912Z,23.48
2017-06-01T06:53:34.591Z,23.72
2017-06-01T06:54:35.241Z,24.03
2017-06-01T06:55:35.251Z,24.14
2017-06-01T06:56:34.907Z,24.36
2017-06-01T06:57:34.926Z,24.46
2017-06-01T06:58:34.906Z,24.63
2017-06-01T06:59:35.229Z,24.87
2017-06-01T07:00:35.257Z,25.07
2017-06-01T07:01:34.918Z,25.27
2017-06-01T07:02:35.237Z,25.51
2017-06-01T07:03:34.925Z,25.71
2017-06-01T07:04:35.241Z,25.93
2017-06-01T07:05:35.242Z,26.11
2017-06-01T07:06:35.242Z,26.47
2017-06-01T07:07:34.611Z,26.82
2017-06-01T07:08:35.272Z,26.84
2017-06-01T07:09:35.540Z,26.63
2017-06-01T07:10:34.624Z,26.86
2017-06-01T07:11:34.936Z,26.97
2017-06-01T07:12:34.962Z,27.06
2017-06-01T07:13:34.957Z,27
2017-06-01T07:14:35.292Z,26.91
2017-06-01T07:15:34.947Z,26.94
2017-06-01T07:16:34.952Z,26.94
2017-06-01T07:17:34.994Z,27.08
2017-06-01T07:18:34.972Z,27.24
2017-06-01T07:19:35.286Z,27.46
2017-06-01T07:20:34.995Z,27.69
2017-06-01T07:21:35.315Z,27.84
2017-06-01T07:22:35.297Z,27.96
2017-06-01T07:23:34.980Z,27.72
2017-06-01T07:24:34.985Z,27.51
2017-06-01T07:25:34.992Z,27.42
2017-06-01T07:26:34.994Z,27.37
2017-06-01T07:27:35.000Z,27.49
2017-06-01T07:28:35.018Z,27.68
2017-06-01T07:29:35.024Z,27.87
2017-06-01T07:30:35.352Z,27.55
2017-06-01T07:31:35.024Z,27.43
2017-06-01T07:32:35.040Z,27.31
2017-06-01T07:33:34.704Z,27.27
2017-06-01T07:34:34.709Z,27.26
2017-06-01T07:35:35.033Z,27.16
2017-06-01T07:36:35.039Z,27.16
2017-06-01T07:37:35.049Z,27.24
2017-06-01T07:38:35.377Z,27.09
2017-06-01T07:39:35.439Z,27.21
2017-06-01T07:40:35.074Z,27.27
2017-06-01T07:41:35.402Z,27.27
2017-06-01T07:42:35.411Z,27.19
2017-06-01T07:43:35.078Z,27.27
2017-06-01T07:44:35.095Z,27.24
2017-06-01T07:45:35.156Z,27.09
2017-06-01T07:46:35.091Z,27.06
2017-06-01T07:47:35.097Z,27.06
2017-06-01T07:48:34.780Z,27.36
2017-06-01T07:49:35.431Z,27.36
2017-06-01T07:50:35.656Z,27.43
2017-06-01T07:51:34.814Z,27.69
2017-06-01T07:52:35.132Z,28.16
2017-06-01T07:53:35.138Z,28.26
2017-06-01T07:54:35.462Z,28.33
2017-06-01T07:55:35.135Z,28.36
2017-06-01T07:56:35.197Z,28.11
2017-06-01T07:57:35.467Z,27.68
2017-06-01T07:58:35.168Z,27.61
2017-06-01T07:59:35.159Z,27.59
2017-06-01T08:00:35.179Z,27.52
2017-06-01T08:01:35.185Z,27.41
2017-06-01T08:02:35.491Z,27.24
2017-06-01T08:03:35.230Z,27.3
2017-06-01T08:04:35.510Z,27.52
2017-06-01T08:05:35.506Z,27.79
2017-06-01T08:06:35.185Z,27.66
2017-06-01T08:07:35.240Z,27.46
2017-06-01T08:08:35.516Z,27.33
2017-06-01T08:09:35.517Z,27.08
2017-06-01T08:10:35.220Z,26.84
2017-06-01T08:11:35.539Z,26.71
2017-06-01T08:12:34.888Z,26.35
2017-06-01T08:13:35.213Z,26.17
2017-06-01T08:14:34.907Z,25.81
2017-06-01T08:15:34.920Z,25.45
2017-06-01T08:16:35.559Z,24.92
2017-06-01T08:17:34.924Z,24.49
2017-06-01T08:18:35.545Z,24.12
2017-06-01T08:19:35.227Z,23.72
2017-06-01T08:20:35.562Z,23.38
2017-06-01T08:21:35.255Z,22.86
2017-06-01T08:22:35.234Z,22.41
2017-06-01T08:23:35.555Z,22.23
2017-06-01T08:24:35.238Z,22.04
2017-06-01T08:25:35.236Z,21.71
2017-06-01T08:26:35.242Z,21.51
2017-06-01T08:27:35.579Z,21.43
2017-06-01T08:28:34.923Z,21.49
2017-06-01T08:29:35.635Z,21.36
2017-06-01T08:30:35.269Z,21.37
2017-06-01T08:31:35.246Z,21.28
2017-06-01T08:32:35.595Z,21.16
2017-06-01T08:33:35.254Z,21.16
2017-06-01T08:34:35.571Z,21.16
2017-06-01T08:35:35.253Z,21.09
2017-06-01T08:36:35.589Z,20.96
2017-06-01T08:37:35.271Z,20.9
2017-06-01T08:38:35.252Z,20.9
2017-06-01T08:39:35.572Z,20.82
2017-06-01T08:40:35.598Z,20.79
2017-06-01T08:41:34.940Z,20.72
2017-06-01T08:42:35.263Z,20.85
2017-06-01T08:43:35.276Z,20.96
2017-06-01T08:44:35.257Z,20.9
2017-06-01T08:45:35.280Z,20.83
2017-06-01T08:46:35.579Z,20.79
2017-06-01T08:47:35.255Z,20.82
2017-06-01T08:48:35.578Z,20.76
2017-06-01T08:49:35.581Z,20.71
2017-06-01T08:50:35.259Z,20.75
2017-06-01T08:51:35.596Z,20.79
2017-06-01T08:52:34.939Z,20.74
2017-06-01T08:53:34.940Z,20.68
2017-06-01T08:54:35.617Z,20.56
2017-06-01T08:55:35.582Z,20.57
2017-06-01T08:56:35.595Z,20.64
2017-06-01T08:57:35.281Z,20.68
2017-06-01T08:58:35.265Z,20.76
2017-06-01T08:59:35.264Z,20.81
2017-06-01T09:00:35.583Z,20.76
2017-06-01T09:01:35.590Z,20.74
2017-06-01T09:02:35.583Z,20.83
2017-06-01T09:03:35.584Z,20.83
2017-06-01T09:04:34.964Z,20.86
2017-06-01T09:05:35.592Z,20.88
2017-06-01T09:06:35.582Z,20.88
2017-06-01T09:07:35.587Z,21
2017-06-01T09:08:35.588Z,21.04
2017-06-01T09:09:35.592Z,21.15
2017-06-01T09:10:35.601Z,21.16
2017-06-01T09:11:35.263Z,21.08
2017-06-01T09:12:35.587Z,21.11
2017-06-01T09:13:35.263Z,21.21
2017-06-01T09:14:35.281Z,21.19
2017-06-01T09:15:35.587Z,21.19
2017-06-01T09:16:35.265Z,21.12
2017-06-01T09:17:35.277Z,20.96
2017-06-01T09:18:35.291Z,20.9
2017-06-01T09:19:34.946Z,20.83
2017-06-01T09:20:35.265Z,20.93
2017-06-01T09:21:35.634Z,20.91
2017-06-01T09:22:35.606Z,21.04
2017-06-01T09:23:35.264Z,21.04
2017-06-01T09:24:35.267Z,20.96
2017-06-01T09:25:35.608Z,20.82
2017-06-01T09:26:35.582Z,20.79
2017-06-01T09:27:35.587Z,20.91
2017-06-01T09:28:35.586Z,20.91
2017-06-01T09:29:34.948Z,20.98
2017-06-01T09:30:34.981Z,20.98
2017-06-01T09:31:35.282Z,21.16
2017-06-01T09:32:35.285Z,21.18
2017-06-01T09:33:35.267Z,21.13
2017-06-01T09:34:35.271Z,21.13
2017-06-01T09:35:35.605Z,21.04
2017-06-01T09:36:35.267Z,21.03
2017-06-01T09:37:35.588Z,21.01
2017-06-01T09:38:35.286Z,21
2017-06-01T09:39:35.587Z,20.88
2017-06-01T09:40:35.586Z,20.83
2017-06-01T09:41:35.280Z,20.9
2017-06-01T09:42:35.593Z,20.83
2017-06-01T09:43:35.589Z,20.88
2017-06-01T09:44:35.586Z,21.01
2017-06-01T09:45:34.971Z,21.15
2017-06-01T09:46:34.944Z,21.3
2017-06-01T09:47:35.275Z,21.21
2017-06-01T09:48:34.944Z,21.23
2017-06-01T09:49:35.266Z,21.18
2017-06-01T09:50:35.610Z,21.16
2017-06-01T09:51:35.594Z,21.21
2017-06-01T09:52:34.964Z,21.16
2017-06-01T09:53:35.265Z,21.13
2017-06-01T09:54:35.585Z,21.22
2017-06-01T09:55:35.268Z,21.18
2017-06-01T09:56:35.599Z,21.16
2017-06-01T09:57:35.266Z,21.27
2017-06-01T09:58:35.266Z,21.45
2017-06-01T09:59:35.588Z,21.45
2017-06-01T10:00:35.601Z,21.41
2017-06-01T10:01:35.287Z,21.41
2017-06-01T10:02:35.265Z,21.41
2017-06-01T10:03:35.285Z,21.37
2017-06-01T10:04:35.269Z,21.41
2017-06-01T10:05:35.277Z,21.36
2017-06-01T10:06:35.612Z,21.38
2017-06-01T10:07:35.267Z,21.48
2017-06-01T10:08:35.319Z,21.37
2017-06-01T10:09:35.612Z,21.43
2017-06-01T10:10:35.600Z,21.49
2017-06-01T10:11:34.946Z,21.45
2017-06-01T10:12:35.607Z,21.43
2017-06-01T10:13:34.945Z,21.36
2017-06-01T10:14:35.273Z,21.38
2017-06-01T10:15:35.626Z,21.3
2017-06-01T10:16:35.285Z,21.18
2017-06-01T10:17:35.593Z,21.21
2017-06-01T10:18:35.591Z,21.22
2017-06-01T10:19:35.611Z,21.25
2017-06-01T10:20:35.267Z,21.33
2017-06-01T10:21:35.600Z,21.43
2017-06-01T10:22:35.590Z,21.49
2017-06-01T10:23:35.592Z,21.66
2017-06-01T10:24:35.271Z,21.43
2017-06-01T10:25:34.950Z,21.38
2017-06-01T10:26:35.273Z,21.36
2017-06-01T10:27:34.986Z,21.43
2017-06-01T10:28:35.300Z,21.38
2017-06-01T10:29:35.272Z,21.4
2017-06-01T10:30:34.950Z,21.59
2017-06-01T10:31:35.605Z,21.9
2017-06-01T10:32:35.282Z,22.02
2017-06-01T10:33:35.286Z,22.02
2017-06-01T10:34:35.595Z,22.02
2017-06-01T10:35:35.274Z,22.23
2017-06-01T10:36:35.276Z,22.16
2017-06-01T10:37:35.616Z,22.2
2017-06-01T10:38:35.301Z,22.12
2017-06-01T10:39:35.276Z,22.22
2017-06-01T10:40:35.274Z,22.18
2017-06-01T10:41:35.617Z,22.18
2017-06-01T10:42:34.960Z,22.05
2017-06-01T10:43:35.282Z,22.02
2017-06-01T10:44:35.282Z,22.07
2017-06-01T10:45:35.612Z,21.92
2017-06-01T10:46:34.960Z,21.8
2017-06-01T10:47:35.312Z,21.76
2017-06-01T10:48:35.618Z,21.8
2017-06-01T10:49:35.286Z,21.9
2017-06-01T10:50:35.283Z,21.9
2017-06-01T10:51:35.645Z,21.92
2017-06-01T10:52:35.607Z,21.89
2017-06-01T10:53:35.611Z,21.82
2017-06-01T10:54:35.607Z,21.71
2017-06-01T10:55:35.321Z,21.62
2017-06-01T10:56:35.290Z,21.7
2017-06-01T10:57:35.612Z,21.61
2017-06-01T10:58:35.635Z,21.4
2017-06-01T10:59:35.645Z,21.23
2017-06-01T11:00:35.618Z,21.01
2017-06-01T11:01:35.291Z,20.79
2017-06-01T11:02:35.289Z,20.72
2017-06-01T11:03:34.973Z,20.46
2017-06-01T11:04:35.314Z,20.35
2017-06-01T11:05:34.971Z,20.3
2017-06-01T11:06:35.294Z,20.26
2017-06-01T11:07:35.293Z,20.23
2017-06-01T11:08:35.638Z,20.26
2017-06-01T11:09:34.970Z,20.42
2017-06-01T11:10:35.617Z,20.76
2017-06-01T11:11:35.294Z,21.03
2017-06-01T11:12:35.325Z,21.25
2017-06-01T11:13:35.316Z,21.48
2017-06-01T11:14:35.615Z,21.76
2017-06-01T11:15:35.621Z,21.99
2017-06-01T11:16:35.307Z,22.07
2017-06-01T11:17:35.334Z,21.94
2017-06-01T11:18:35.297Z,21.78
2017-06-01T11:19:35.618Z,21.66
2017-06-01T11:20:35.625Z,21.41
2017-06-01T11:21:34.976Z,21.25
2017-06-01T11:22:35.631Z,21.11
2017-06-01T11:23:34.975Z,20.93
2017-06-01T11:24:34.976Z,20.79
2017-06-01T11:25:35.300Z,20.66
2017-06-01T11:26:35.626Z,20.67
2017-06-01T11:27:35.657Z,20.83
2017-06-01T11:28:35.320Z,21.11
2017-06-01T11:29:35.298Z,21.27
2017-06-01T11:30:35.634Z,21.25
2017-06-01T11:31:35.656Z,21.53
2017-06-01T11:32:35.304Z,21.59
2017-06-01T11:33:35.332Z,21.85
2017-06-01T11:34:35.302Z,22.02
2017-06-01T11:35:34.990Z,22.05
2017-06-01T11:36:35.639Z,22.2
2017-06-01T11:37:35.320Z,22.27
2017-06-01T11:38:35.309Z,21.99
2017-06-01T11:39:34.982Z,21.85
2017-06-01T11:40:35.632Z,21.64
2017-06-01T11:41:35.305Z,21.4
2017-06-01T11:42:35.644Z,21.19
2017-06-01T11:43:34.997Z,21.22
2017-06-01T11:44:34.983Z,21.38
2017-06-01T11:45:35.310Z,21.46
2017-06-01T11:46:35.632Z,21.58
2017-06-01T11:47:35.308Z,21.78
2017-06-01T11:48:35.628Z,21.8
2017-06-01T11:49:35.318Z,21.83
2017-06-01T11:50:35.313Z,21.71
2017-06-01T11:51:35.630Z,21.48
2017-06-01T11:52:35.311Z,21.3
2017-06-01T11:53:35.310Z,21.06
2017-06-01T11:54:35.631Z,20.93
2017-06-01T11:55:35.313Z,20.96
2017-06-01T11:56:35.311Z,20.97
2017-06-01T11:57:35.314Z,21.08
2017-06-01T11:58:35.634Z,21.12
2017-06-01T11:59:35.342Z,21.15
2017-06-01T12:00:35.349Z,21.18
2017-06-01T12:01:35.323Z,21.16
2017-06-01T12:02:35.645Z,21.16
2017-06-01T12:03:34.990Z,20.98
2017-06-01T12:04:35.314Z,20.9
2017-06-01T12:05:35.638Z,20.74
2017-06-01T12:06:35.644Z,20.72
2017-06-01T12:07:35.330Z,20.68
2017-06-01T12:08:35.328Z,20.57
2017-06-01T12:09:34.993Z,20.44
2017-06-01T12:10:34.993Z,20.51
2017-06-01T12:11:35.335Z,20.37
2017-06-01T12:12:35.660Z,20.25
2017-06-01T12:13:35.321Z,20.19
2017-06-01T12:14:35.321Z,20.2
2017-06-01T12:15:34.999Z,20.16
2017-06-01T12:16:35.314Z,20.07
2017-06-01T12:17:37.663Z,20.15
2017-06-01T12:18:34.996Z,20.22
2017-06-01T12:19:35.635Z,20.27
2017-06-01T12:20:35.016Z,20.3
2017-06-01T12:21:35.640Z,20.32
2017-06-01T12:22:35.318Z,20.46
2017-06-01T12:23:35.655Z,20.61
2017-06-01T12:24:35.314Z,20.76
2017-06-01T12:25:35.633Z,20.94
2017-06-01T12:26:35.326Z,20.93
2017-06-01T12:27:35.313Z,20.93
2017-06-01T12:28:35.317Z,21.01
2017-06-01T12:29:35.647Z,21.16
2017-06-01T12:30:35.007Z,21.23
2017-06-01T12:31:35.320Z,21.38
2017-06-01T12:32:35.656Z,21.27
2017-06-01T12:33:35.661Z,21.16
2017-06-01T12:34:35.647Z,21.31
2017-06-01T12:35:35.005Z,21.38
2017-06-01T12:36:35.000Z,21.53
2017-06-01T12:37:35.315Z,21.61
2017-06-01T12:38:35.653Z,21.74
2017-06-01T12:39:35.337Z,21.93
2017-06-01T12:40:35.647Z,22.04
2017-06-01T12:41:35.651Z,21.92
2017-06-01T12:42:35.023Z,21.94
2017-06-01T12:43:35.645Z,22.09
2017-06-01T12:44:35.009Z,21.89
2017-06-01T12:45:35.319Z,21.61
2017-06-01T12:46:35.641Z,21.45
2017-06-01T12:47:35.659Z,21.27
2017-06-01T12:48:35.654Z,21.18
2017-06-01T12:49:35.334Z,21
2017-06-01T12:50:35.648Z,20.93
2017-06-01T12:51:35.324Z,20.72
2017-06-01T12:52:35.656Z,20.72
2017-06-01T12:53:35.651Z,20.67
2017-06-01T12:54:35.645Z,20.58
2017-06-01T12:55:35.336Z,20.67